createdAt,value
2022-09-22T00:01:32.234Z,17.03
2022-09-22T00:04:03.401Z,16.96
2022-09-22T00:06:43.534Z,17.05
2022-09-22T00:09:13.678Z,17.20
2022-09-22T00:11:44.875Z,17.28
2022-09-22T00:14:22.251Z,17.42
2022-09-22T00:16:53.902Z,17.42
2022-09-22T00:19:29.034Z,17.37
2022-09-22T00:21:57.141Z,17.36
2022-09-22T00:24:26.200Z,17.28
2022-09-22T00:26:57.430Z,17.30
2022-09-22T00:29:27.086Z,17.25
2022-09-22T00:31:55.795Z,17.28
2022-09-22T00:34:26.037Z,17.35
2022-09-22T00:36:53.836Z,17.30
2022-09-22T00:39:21.871Z,17.41
2022-09-22T00:41:52.019Z,17.51
2022-09-22T00:44:38.559Z,17.38
2022-09-22T00:47:06.479Z,17.40
2022-09-22T00:49:52.266Z,17.38
2022-09-22T00:52:24.759Z,17.36
2022-09-22T00:54:55.464Z,17.33
2022-09-22T00:57:26.694Z,17.20
2022-09-22T00:59:55.500Z,17.34
2022-09-22T01:02:24.236Z,17.36
2022-09-22T01:04:53.433Z,17.26
2022-09-22T01:07:25.208Z,17.21
2022-09-22T01:09:53.217Z,17.08
2022-09-22T01:12:21.250Z,17.09
2022-09-22T01:15:03.994Z,17.24
2022-09-22T01:17:38.659Z,17.26
2022-09-22T01:20:29.413Z,17.19
2022-09-22T01:23:09.066Z,17.44
2022-09-22T01:25:59.508Z,17.39
2022-09-22T01:28:48.895Z,17.27
2022-09-22T01:31:38.857Z,17.33
2022-09-22T01:34:20.064Z,17.21
2022-09-22T01:37:02.570Z,17.09
2022-09-22T01:39:40.263Z,17.04
2022-09-22T01:42:16.510Z,16.90
2022-09-22T01:44:55.217Z,16.75
2022-09-22T01:47:40.791Z,16.77
2022-09-22T01:50:16.492Z,16.76
2022-09-22T01:52:45.321Z,16.77
2022-09-22T01:55:19.950Z,16.82
2022-09-22T01:58:04.844Z,16.82
2022-09-22T02:00:32.737Z,16.81
2022-09-22T02:03:42.343Z,16.81
2022-09-22T02:06:14.390Z,16.73
2022-09-22T02:08:57.196Z,16.50
2022-09-22T02:11:26.015Z,16.41
2022-09-22T02:13:54.824Z,16.34
2022-09-22T02:16:24.951Z,16.20
2022-09-22T02:19:11.623Z,16.09
2022-09-22T02:21:43.020Z,16.02
2022-09-22T02:24:45.508Z,15.98
2022-09-22T02:27:28.011Z,16.09
2022-09-22T02:30:16.615Z,16.14
2022-09-22T02:32:48.911Z,16.13
2022-09-22T02:35:17.151Z,16.13
2022-09-22T02:38:02.894Z,16.12
2022-09-22T02:40:36.177Z,16.18
2022-09-22T02:43:43.848Z,16.07
2022-09-22T02:46:25.761Z,16.03
2022-09-22T02:49:03.944Z,16.21
2022-09-22T02:51:34.540Z,16.16
2022-09-22T02:54:03.492Z,16.11
2022-09-22T02:56:31.123Z,16.20
2022-09-22T02:58:58.915Z,16.28
2022-09-22T03:01:26.944Z,16.21
2022-09-22T03:03:54.881Z,16.23
2022-09-22T03:06:22.428Z,16.22
2022-09-22T03:08:50.379Z,16.34
2022-09-22T03:11:17.900Z,16.22
2022-09-22T03:13:45.574Z,16.23
2022-09-22T03:16:13.808Z,16.18
2022-09-22T03:18:41.466Z,16.03
2022-09-22T03:21:09.390Z,15.98
2022-09-22T03:23:36.843Z,15.96
2022-09-22T03:26:04.454Z,16.25
2022-09-22T03:28:32.469Z,16.47
2022-09-22T03:30:59.952Z,16.50
2022-09-22T03:33:27.502Z,16.62
2022-09-22T03:35:54.998Z,16.53
2022-09-22T03:38:22.785Z,16.62
2022-09-22T03:40:52.654Z,16.39
2022-09-22T03:43:21.518Z,16.45
2022-09-22T03:45:49.212Z,16.57
2022-09-22T03:48:18.284Z,16.60
2022-09-22T03:50:46.367Z,16.66
2022-09-22T03:53:13.826Z,16.73
2022-09-22T03:55:42.068Z,16.67
2022-09-22T03:58:09.589Z,16.56
2022-09-22T04:00:37.180Z,16.48
2022-09-22T04:03:05.011Z,16.42
2022-09-22T04:05:32.659Z,16.55
2022-09-22T04:08:01.020Z,16.67
2022-09-22T04:10:28.863Z,16.78
2022-09-22T04:12:56.381Z,16.79
2022-09-22T04:15:23.919Z,16.72
2022-09-22T04:17:51.467Z,16.51
2022-09-22T04:20:19.525Z,16.65
2022-09-22T04:22:47.136Z,16.69
2022-09-22T04:25:14.768Z,16.74
2022-09-22T04:27:42.736Z,16.63
2022-09-22T04:30:11.720Z,16.68
2022-09-22T04:32:40.091Z,16.71
2022-09-22T04:35:09.491Z,16.70
2022-09-22T04:37:37.468Z,16.77
2022-09-22T04:40:06.176Z,16.58
2022-09-22T04:42:34.132Z,16.59
2022-09-22T04:45:02.085Z,16.61
2022-09-22T04:47:30.571Z,16.59
2022-09-22T04:49:58.079Z,16.43
2022-09-22T04:52:26.371Z,16.42
2022-09-22T04:54:54.107Z,16.30
2022-09-22T04:57:22.834Z,16.08
2022-09-22T04:59:50.740Z,15.97
2022-09-22T05:02:19.170Z,15.97
2022-09-22T05:04:46.682Z,16.18
2022-09-22T05:07:15.194Z,16.11
2022-09-22T05:09:42.868Z,16.14
2022-09-22T05:12:10.364Z,16.09
2022-09-22T05:14:38.356Z,16.18
2022-09-22T05:17:06.284Z,16.24
2022-09-22T05:19:34.606Z,16.33
2022-09-22T05:22:02.574Z,16.46
2022-09-22T05:24:30.396Z,16.50
2022-09-22T05:26:59.104Z,16.25
2022-09-22T05:29:28.109Z,16.24
2022-09-22T05:31:56.170Z,16.35
2022-09-22T05:34:24.277Z,16.32
2022-09-22T05:36:51.846Z,16.37
2022-09-22T05:39:19.536Z,16.51
2022-09-22T05:41:49.930Z,16.67
2022-09-22T05:44:17.487Z,16.67
2022-09-22T05:46:46.815Z,16.77
2022-09-22T05:49:14.511Z,16.81
2022-09-22T05:51:42.711Z,16.82
2022-09-22T05:54:10.428Z,16.74
2022-09-22T05:56:37.971Z,16.74
2022-09-22T05:59:05.917Z,16.87
2022-09-22T06:01:34.174Z,16.86
2022-09-22T06:04:01.952Z,16.96
2022-09-22T06:06:29.459Z,16.96
2022-09-22T06:08:57.283Z,16.95
2022-09-22T06:11:24.875Z,17.19
2022-09-22T06:13:52.437Z,17.36
2022-09-22T06:16:21.228Z,17.40
2022-09-22T06:18:49.674Z,17.43
2022-09-22T06:21:17.683Z,17.37
2022-09-22T06:23:45.180Z,17.53
2022-09-22T06:26:12.856Z,17.77
2022-09-22T06:28:40.865Z,17.83
2022-09-22T06:31:08.875Z,17.92
2022-09-22T06:33:36.384Z,17.71
2022-09-22T06:36:08.078Z,17.98
2022-09-22T06:38:36.293Z,18.23
2022-09-22T06:41:06.731Z,18.37
2022-09-22T06:43:38.031Z,18.45
2022-09-22T06:46:05.907Z,18.73
2022-09-22T06:48:33.590Z,18.91
2022-09-22T06:51:01.505Z,18.93
2022-09-22T06:53:29.268Z,18.90
2022-09-22T06:55:58.497Z,19.03
2022-09-22T06:58:28.057Z,19.15
2022-09-22T07:01:00.932Z,19.45
2022-09-22T07:03:29.061Z,19.72
2022-09-22T07:06:01.043Z,19.53
2022-09-22T07:08:31.592Z,19.62
2022-09-22T07:11:02.353Z,19.76
2022-09-22T07:13:32.324Z,20.02
2022-09-22T07:16:19.653Z,20.38
2022-09-22T07:18:50.115Z,20.44
2022-09-22T07:21:28.061Z,20.46
2022-09-22T07:23:57.155Z,20.59
2022-09-22T07:26:29.013Z,20.25
2022-09-22T07:28:59.741Z,20.28
2022-09-22T07:31:29.578Z,19.79
2022-09-22T07:34:01.338Z,19.56
2022-09-22T07:36:31.408Z,19.96
2022-09-22T07:39:07.224Z,20.30
2022-09-22T07:41:41.864Z,20.03
2022-09-22T07:44:30.340Z,20.41
2022-09-22T07:46:58.445Z,20.69
2022-09-22T07:49:26.226Z,20.65
2022-09-22T07:51:57.746Z,21.00
2022-09-22T07:54:26.812Z,20.96
2022-09-22T07:57:02.264Z,21.33
2022-09-22T07:59:29.864Z,21.22
2022-09-22T08:01:58.232Z,21.69
2022-09-22T08:04:26.781Z,21.29
2022-09-22T08:06:58.239Z,21.52
2022-09-22T08:09:28.282Z,22.00
2022-09-22T08:11:56.056Z,21.34
2022-09-22T08:14:24.313Z,21.76
2022-09-22T08:16:53.603Z,21.46
2022-09-22T08:19:23.932Z,21.95
2022-09-22T08:21:54.430Z,21.95
2022-09-22T08:24:23.702Z,22.10
2022-09-22T08:26:53.809Z,22.60
2022-09-22T08:29:22.164Z,23.14
2022-09-22T08:31:51.527Z,23.31
2022-09-22T08:34:20.403Z,23.46
2022-09-22T08:36:49.104Z,23.14
2022-09-22T08:39:18.315Z,23.20
2022-09-22T08:41:47.057Z,22.81
2022-09-22T08:44:24.035Z,22.93
2022-09-22T08:46:53.525Z,23.21
2022-09-22T08:49:42.615Z,23.27
2022-09-22T08:52:25.545Z,22.73
2022-09-22T08:54:59.757Z,22.69
2022-09-22T08:57:42.368Z,22.14
2022-09-22T09:00:13.026Z,22.68
2022-09-22T09:02:55.594Z,23.31
2022-09-22T09:05:39.274Z,23.84
2022-09-22T09:08:15.895Z,24.06
2022-09-22T09:10:56.317Z,23.52
2022-09-22T09:13:48.797Z,24.30
2022-09-22T09:16:37.803Z,24.60
2022-09-22T09:19:17.129Z,25.18
2022-09-22T09:21:51.797Z,25.19
2022-09-22T09:27:30.569Z,25.65
2022-09-22T09:30:11.573Z,25.36
2022-09-22T09:32:53.367Z,26.35
2022-09-22T09:35:50.546Z,26.75
2022-09-22T09:38:26.340Z,27.17
2022-09-22T09:41:01.551Z,26.00
2022-09-22T09:43:30.291Z,25.76
2022-09-22T09:46:10.309Z,26.28
2022-09-22T09:48:59.530Z,27.32
2022-09-22T09:51:28.823Z,28.21
2022-09-22T09:53:58.575Z,29.04
2022-09-22T09:56:29.153Z,28.65
2022-09-22T09:59:19.044Z,29.14
2022-09-22T10:01:50.790Z,28.37
2022-09-22T10:04:29.935Z,28.77
2022-09-22T10:07:21.499Z,30.32
2022-09-22T10:09:51.886Z,29.90
2022-09-22T10:12:31.332Z,30.22
2022-09-22T10:15:01.480Z,29.03
2022-09-22T10:17:33.936Z,26.67
2022-09-22T10:20:23.274Z,28.22
2022-09-22T10:22:50.792Z,27.47
2022-09-22T10:25:23.313Z,26.84
2022-09-22T10:28:15.801Z,28.08
2022-09-22T10:30:46.511Z,28.50
2022-09-22T10:33:20.568Z,26.56
2022-09-22T10:36:15.045Z,24.56
2022-09-22T10:38:43.793Z,24.38
2022-09-22T10:41:19.355Z,23.62
2022-09-22T10:44:15.474Z,23.28
2022-09-22T10:47:27.385Z,23.01
2022-09-22T10:50:01.000Z,23.72
2022-09-22T10:52:28.694Z,23.64
2022-09-22T10:55:11.100Z,24.50
2022-09-22T10:58:00.243Z,24.32
2022-09-22T11:00:35.258Z,26.60
2022-09-22T11:03:05.790Z,26.63
2022-09-22T11:06:29.725Z,29.33
2022-09-22T11:09:45.645Z,31.95
2022-09-22T11:12:43.079Z,32.75
2022-09-22T11:15:39.984Z,31.17
2022-09-22T11:18:33.610Z,32.03
2022-09-22T11:21:10.874Z,31.77
2022-09-22T11:24:00.448Z,32.22
2022-09-22T11:26:29.155Z,34.10
2022-09-22T11:29:09.818Z,33.61
2022-09-22T11:31:54.199Z,34.22
2022-09-22T11:34:48.836Z,33.29
2022-09-22T11:37:31.753Z,30.79
2022-09-22T11:40:27.484Z,30.00
2022-09-22T11:43:21.805Z,30.65
2022-09-22T11:46:15.736Z,30.27
2022-09-22T11:49:09.977Z,29.71
2022-09-22T11:51:45.096Z,30.20
2022-09-22T11:54:47.026Z,29.80
2022-09-22T11:57:18.168Z,29.98
2022-09-22T11:59:53.713Z,29.85
2022-09-22T12:03:01.932Z,30.44
2022-09-22T12:05:39.309Z,29.77
2022-09-22T12:08:25.636Z,30.26
2022-09-22T12:10:54.323Z,31.49
2022-09-22T12:13:28.237Z,31.86
2022-09-22T12:16:22.528Z,31.61
2022-09-22T12:18:50.604Z,31.24
2022-09-22T12:21:27.420Z,31.86
2022-09-22T12:23:57.230Z,31.60
2022-09-22T12:26:33.633Z,31.30
2022-09-22T12:29:07.086Z,31.49
2022-09-22T12:31:42.666Z,31.77
2022-09-22T12:34:22.413Z,30.36
2022-09-22T12:36:55.519Z,31.14
2022-09-22T12:39:25.079Z,31.34
2022-09-22T12:42:29.784Z,31.24
2022-09-22T12:45:03.040Z,31.93
2022-09-22T12:47:38.374Z,32.40
2022-09-22T12:50:27.881Z,33.76
2022-09-22T12:53:03.904Z,32.77
2022-09-22T12:55:41.081Z,33.51
2022-09-22T12:58:20.666Z,29.57
2022-09-22T13:00:50.758Z,28.34
2022-09-22T13:03:27.594Z,27.73
2022-09-22T13:05:56.618Z,30.38
2022-09-22T13:08:33.808Z,32.99
2022-09-22T13:11:09.423Z,32.64
2022-09-22T13:13:46.872Z,32.97
2022-09-22T13:16:15.001Z,30.05
2022-09-22T13:18:44.031Z,27.30
2022-09-22T13:21:14.922Z,26.53
2022-09-22T13:23:51.519Z,26.29
2022-09-22T13:26:29.690Z,25.50
2022-09-22T13:29:01.711Z,25.25
2022-09-22T13:31:36.637Z,25.03
2022-09-22T13:34:35.423Z,28.37
2022-09-22T13:37:33.517Z,32.17
2022-09-22T13:40:02.177Z,32.11
2022-09-22T13:42:32.618Z,30.11
2022-09-22T13:45:18.634Z,28.95
2022-09-22T13:47:48.910Z,31.09
2022-09-22T13:50:22.160Z,30.79
2022-09-22T13:52:51.936Z,29.40
2022-09-22T13:55:33.716Z,31.01
2022-09-22T13:58:03.255Z,32.88
2022-09-22T14:01:08.670Z,34.84
2022-09-22T14:03:37.245Z,31.40
2022-09-22T14:06:09.311Z,33.12
2022-09-22T14:08:37.774Z,35.32
2022-09-22T14:11:12.075Z,37.78
2022-09-22T14:14:01.036Z,38.79
2022-09-22T14:16:51.612Z,40.02
2022-09-22T14:19:38.115Z,37.50
2022-09-22T14:22:15.566Z,38.19
2022-09-22T14:24:49.293Z,38.64
2022-09-22T14:27:21.285Z,39.09
2022-09-22T14:29:52.114Z,39.08
2022-09-22T14:32:25.579Z,40.49
2022-09-22T14:34:58.487Z,40.01
2022-09-22T14:37:43.151Z,40.71
2022-09-22T14:40:23.016Z,41.54
2022-09-22T14:43:03.228Z,39.81
2022-09-22T14:45:32.777Z,39.67
2022-09-22T14:48:13.020Z,40.33
2022-09-22T14:50:45.773Z,40.22
2022-09-22T14:53:13.688Z,39.54
2022-09-22T14:55:48.460Z,38.80
2022-09-22T14:58:24.031Z,40.10
2022-09-22T15:01:17.255Z,38.86
2022-09-22T15:03:55.251Z,39.18
2022-09-22T15:06:23.473Z,40.42
2022-09-22T15:08:52.782Z,40.82
2022-09-22T15:11:20.449Z,40.14
2022-09-22T15:13:52.797Z,40.49
2022-09-22T15:16:40.171Z,37.90
2022-09-22T15:19:14.427Z,38.95
2022-09-22T15:21:47.003Z,37.23
2022-09-22T15:24:21.280Z,37.54
2022-09-22T15:26:49.539Z,35.74
2022-09-22T15:29:17.398Z,35.96
2022-09-22T15:31:45.113Z,36.50
2022-09-22T15:34:16.597Z,37.46
2022-09-22T15:36:46.661Z,37.32
2022-09-22T15:39:23.310Z,35.51
2022-09-22T15:41:52.761Z,33.94
2022-09-22T15:44:20.637Z,31.39
2022-09-22T15:46:52.532Z,29.60
2022-09-22T15:49:25.062Z,27.91
2022-09-22T15:51:53.040Z,26.74
2022-09-22T15:54:23.824Z,26.51
2022-09-22T15:56:53.385Z,25.98
2022-09-22T15:59:26.709Z,25.47
2022-09-22T16:01:57.475Z,25.17
2022-09-22T16:04:31.762Z,24.67
2022-09-22T16:07:04.737Z,24.48
2022-09-22T16:09:32.300Z,24.42
2022-09-22T16:11:59.971Z,23.87
2022-09-22T16:14:28.441Z,23.40
2022-09-22T16:16:56.119Z,23.05
2022-09-22T16:19:24.629Z,22.92
2022-09-22T16:21:54.403Z,23.04
2022-09-22T16:24:22.917Z,23.11
2022-09-22T16:26:51.859Z,23.08
2022-09-22T16:29:19.663Z,22.94
2022-09-22T16:31:47.846Z,22.59
2022-09-22T16:34:16.494Z,22.66
2022-09-22T16:36:44.869Z,22.70
2022-09-22T16:39:12.392Z,22.58
2022-09-22T16:41:44.802Z,22.39
2022-09-22T16:44:13.328Z,22.29
2022-09-22T16:46:41.029Z,22.18
2022-09-22T16:49:12.077Z,22.15
2022-09-22T16:51:42.338Z,22.13
2022-09-22T16:54:13.822Z,21.88
2022-09-22T16:56:43.928Z,21.65
2022-09-22T16:59:15.416Z,21.48
2022-09-22T17:01:44.141Z,21.13
2022-09-22T17:04:16.542Z,21.31
2022-09-22T17:06:44.697Z,21.25
2022-09-22T17:09:14.359Z,21.16
2022-09-22T17:11:44.098Z,21.01
2022-09-22T17:14:15.483Z,21.10
2022-09-22T17:16:45.243Z,21.07
2022-09-22T17:19:19.496Z,21.05
2022-09-22T17:21:49.267Z,20.95
2022-09-22T17:24:19.302Z,20.84
2022-09-22T17:26:55.167Z,20.87
2022-09-22T17:29:28.320Z,20.79
2022-09-22T17:31:59.760Z,20.79
2022-09-22T17:34:28.909Z,20.73
2022-09-22T17:36:57.988Z,20.62
2022-09-22T17:39:27.375Z,20.56
2022-09-22T17:41:55.224Z,20.42
2022-09-22T17:44:23.390Z,20.37
2022-09-22T17:47:11.482Z,20.16
2022-09-22T17:50:02.908Z,20.11
2022-09-22T17:52:33.517Z,20.06
2022-09-22T17:55:08.043Z,20.00
2022-09-22T17:57:41.852Z,19.95
2022-09-22T18:00:10.759Z,19.87
2022-09-22T18:02:39.103Z,19.82
2022-09-22T18:05:10.476Z,19.65
2022-09-22T18:07:40.388Z,19.48
2022-09-22T18:10:14.469Z,19.30
2022-09-22T18:12:42.372Z,19.24
2022-09-22T18:15:13.536Z,19.05
2022-09-22T18:17:43.040Z,18.98
2022-09-22T18:20:16.287Z,18.95
2022-09-22T18:22:48.418Z,18.79
2022-09-22T18:25:19.638Z,18.71
2022-09-22T18:27:50.710Z,18.51
2022-09-22T18:30:19.559Z,18.66
2022-09-22T18:32:48.367Z,18.66
2022-09-22T18:35:16.427Z,18.38
2022-09-22T18:37:44.636Z,18.37
2022-09-22T18:40:12.856Z,18.41
2022-09-22T18:42:43.051Z,18.52
2022-09-22T18:45:11.254Z,18.57
2022-09-22T18:47:43.860Z,18.39
2022-09-22T18:50:13.055Z,18.26
2022-09-22T18:52:43.472Z,18.39
2022-09-22T18:55:14.134Z,18.49
2022-09-22T18:57:41.615Z,18.42
2022-09-22T19:00:11.315Z,18.23
2022-09-22T19:02:39.572Z,17.83
2022-09-22T19:05:08.636Z,17.60
2022-09-22T19:07:43.030Z,17.50
2022-09-22T19:10:19.034Z,17.54
2022-09-22T19:12:47.144Z,17.52
2022-09-22T19:15:18.850Z,17.58
2022-09-22T19:17:49.595Z,17.42
2022-09-22T19:20:23.958Z,17.40
2022-09-22T19:22:52.600Z,17.35
2022-09-22T19:25:22.098Z,17.38
2022-09-22T19:27:52.374Z,17.37
2022-09-22T19:30:23.289Z,17.47
2022-09-22T19:32:53.602Z,17.28
2022-09-22T19:35:21.772Z,17.34
2022-09-22T19:37:51.901Z,17.36
2022-09-22T19:40:21.036Z,17.41
2022-09-22T19:42:49.904Z,17.17
2022-09-22T19:45:19.089Z,17.21
2022-09-22T19:47:49.573Z,17.13
2022-09-22T19:50:17.989Z,17.10
2022-09-22T19:52:45.498Z,17.12
2022-09-22T19:55:13.331Z,17.12
2022-09-22T19:57:41.837Z,17.03
2022-09-22T20:00:17.234Z,16.93
2022-09-22T20:02:45.490Z,16.87
2022-09-22T20:05:20.726Z,16.86
2022-09-22T20:07:49.079Z,16.87
2022-09-22T20:10:19.024Z,17.01
2022-09-22T20:12:47.002Z,17.06
2022-09-22T20:15:15.893Z,16.96
2022-09-22T20:17:46.276Z,16.94
2022-09-22T20:20:25.295Z,16.93
2022-09-22T20:23:00.179Z,16.94
2022-09-22T20:25:30.382Z,16.77
2022-09-22T20:27:58.974Z,16.74
2022-09-22T20:30:27.532Z,16.66
2022-09-22T20:32:55.030Z,16.72
2022-09-22T20:35:22.730Z,16.54
2022-09-22T20:37:51.697Z,16.60
2022-09-22T20:40:21.604Z,16.55
2022-09-22T20:42:50.863Z,16.55
2022-09-22T20:45:21.027Z,16.45
2022-09-22T20:47:49.575Z,16.46
2022-09-22T20:50:18.535Z,16.44
2022-09-22T20:52:47.430Z,16.56
2022-09-22T20:55:15.583Z,16.49
2022-09-22T20:57:43.842Z,16.39
2022-09-22T21:00:13.263Z,16.32
2022-09-22T21:02:41.117Z,16.38
2022-09-22T21:05:08.930Z,16.29
2022-09-22T21:07:36.883Z,16.32
2022-09-22T21:10:23.343Z,16.37
2022-09-22T21:12:55.025Z,16.43
2022-09-22T21:15:22.991Z,16.40
2022-09-22T21:17:52.922Z,16.29
2022-09-22T21:20:20.635Z,16.24
2022-09-22T21:22:48.187Z,16.24
2022-09-22T21:25:16.117Z,16.30
2022-09-22T21:27:45.290Z,16.18
2022-09-22T21:30:13.283Z,16.30
2022-09-22T21:32:40.838Z,16.34
2022-09-22T21:35:08.971Z,16.28
2022-09-22T21:37:36.537Z,16.40
2022-09-22T21:40:04.496Z,16.47
2022-09-22T21:42:32.468Z,16.38
2022-09-22T21:45:00.017Z,16.26
2022-09-22T21:47:27.462Z,16.25
2022-09-22T21:49:54.957Z,16.33
2022-09-22T21:52:22.866Z,16.35
2022-09-22T21:54:50.839Z,16.37
2022-09-22T21:57:18.403Z,16.35
2022-09-22T21:59:46.361Z,16.34
2022-09-22T22:02:14.109Z,16.26
2022-09-22T22:04:41.898Z,16.30
2022-09-22T22:07:11.076Z,16.29
2022-09-22T22:09:38.615Z,16.25
2022-09-22T22:12:06.801Z,16.28
2022-09-22T22:14:34.913Z,16.19
2022-09-22T22:17:04.205Z,16.10
2022-09-22T22:19:32.743Z,16.07
2022-09-22T22:22:00.311Z,15.90
2022-09-22T22:24:28.956Z,15.89
2022-09-22T22:27:01.354Z,15.78
2022-09-22T22:29:32.201Z,15.70
2022-09-22T22:31:59.680Z,15.60
2022-09-22T22:34:28.035Z,15.61
2022-09-22T22:36:56.171Z,15.77
2022-09-22T22:39:24.672Z,15.71
2022-09-22T22:41:54.543Z,15.53
2022-09-22T22:44:22.865Z,15.54
2022-09-22T22:46:50.427Z,15.56
2022-09-22T22:49:17.977Z,15.61
2022-09-22T22:51:46.124Z,15.52
2022-09-22T22:54:14.495Z,15.43
2022-09-22T22:56:43.716Z,15.47
2022-09-22T22:59:13.362Z,15.50
2022-09-22T23:01:44.035Z,15.57
2022-09-22T23:04:12.411Z,15.49
2022-09-22T23:06:47.384Z,15.46
2022-09-22T23:09:16.887Z,15.50
2022-09-22T23:11:46.322Z,15.39
2022-09-22T23:14:16.243Z,15.41
2022-09-22T23:16:46.407Z,15.43
2022-09-22T23:19:17.318Z,15.37
2022-09-22T23:21:46.210Z,15.38
2022-09-22T23:24:19.135Z,15.27
2022-09-22T23:26:47.793Z,15.35
2022-09-22T23:29:15.376Z,15.26
2022-09-22T23:31:42.998Z,15.29
2022-09-22T23:34:10.578Z,15.17
2022-09-22T23:36:39.825Z,15.08
2022-09-22T23:39:07.655Z,15.15
2022-09-22T23:41:37.276Z,15.17
2022-09-22T23:44:06.800Z,15.03
2022-09-22T23:46:35.095Z,14.98
2022-09-22T23:49:02.814Z,15.08
2022-09-22T23:51:31.062Z,14.90
2022-09-22T23:53:58.670Z,14.88
2022-09-22T23:56:26.990Z,14.73
2022-09-22T23:58:55.603Z,14.77
